Crabtree, Oregon
Current Conditions -  °F | °C
As of 7:56 AM on Sunday 23 Nov 2014 (Local Time) from KSLE Reporting Station
Broken Clouds Broken Clouds  
Wind Chill: 42°   Ceiling: 7000
Heat Index: 48°   Visibility: 10mi
Dew Point: 42°   Wind: 17mph
Humidity: 80%   Direction: 180°S
Pressure: 30.31"   Gusts: NA
Location:  44.63°N, 122.9°W
Report Text: KSLE 231556Z 18015KT 10SM FEW055 BKN070 09/06 A3031 RMK AO2 SLP265 T00890056
Loading
Personal Weather Stations






























Interactive Weather Map New forecast layout! Learn more

10-Day Weather Forecast

Advertisements
Track Severe Weather on mobile